River Of Ponds, Canada
Current Conditions -  °F | °C
As of 9:00 PM on Wednesday 22 Oct 2014 (Local Time) from CWDH Reporting Station
Clear Clear  
Wind Chill: 30°   Ceiling: Unl
Heat Index: 30°   Visibility: 9mi
Dew Point: 24°   Wind: 0mph
Humidity: 78%   Direction: NA
Pressure: 30.45"   Gusts: NA
Location:  50.53°N, 57.38°W
Report Text: CWDH 222300Z AUTO 00000KT 9SM NSC M01/M05 A3045 RMK SLP314 T10121046 WSI/SWOB
Loading
Personal Weather Stations






























Interactive Weather Map New forecast layout! Learn more

10-Day Weather Forecast

Advertisements
Track Severe Weather on mobile